<?xml version="1.0" encoding="UTF-8" standalone="no" ?>
<gpx xmlns="http://www.topografix.com/GPX/1/1" xmlns:xsi="http://www.w3.org/2001/XMLSchema-instance" xsi:schemaLocation="http://www.topografix.com/GPX/1/1 http://www.topografix.com/GPX/1/1/gpx.xsd" version="1.1" creator="VisuGPX - https://www.visugpx.com">
  <metadata>
    <name>ARQUES LA SEYNE SUR MER 1497 KM</name>
    <desc><![CDATA[Rando de Arques dans le Pas de Calais jusque La Seyne sur Mer dans le Var, 1497 km]]></desc>
  </metadata>
  <trk>
    <name><![CDATA[57 - MARSEILLE 15ème ST ANTOINE MARSEILLE 11ème ST MENET 25.0 KM]]></name>
    <extensions>
      <line xmlns="http://www.topografix.com/GPX/gpx_style/0/2">
        <color>008800</color>
        <width>4</width>
      </line>
    </extensions>
    <trkseg>
      <trkpt lat="43.37906" lon="5.35591">
        <ele>163</ele>
        <time>2021-12-17T15:38:44+01:00</time>
      </trkpt>
      <trkpt lat="43.37893" lon="5.35586">
        <ele>162</ele>
        <time>2021-12-17T15:38:49+01:00</time>
      </trkpt>
      <trkpt lat="43.37866" lon="5.35687">
        <ele>152</ele>
        <time>2021-12-17T15:38:54+01:00</time>
      </trkpt>
      <trkpt lat="43.37699" lon="5.35639">
        <ele>153</ele>
        <time>2021-12-17T15:38:59+01:00</time>
      </trkpt>
      <trkpt lat="43.3766" lon="5.35854">
        <ele>150</ele>
        <time>2021-12-17T15:39:04+01:00</time>
      </trkpt>
      <trkpt lat="43.37632" lon="5.35856">
        <ele>150</ele>
        <time>2021-12-17T15:39:09+01:00</time>
      </trkpt>
      <trkpt lat="43.3764" lon="5.35872">
        <ele>150</ele>
        <time>2021-12-17T15:39:14+01:00</time>
      </trkpt>
      <trkpt lat="43.37695" lon="5.35949">
        <ele>153</ele>
        <time>2021-12-17T15:39:19+01:00</time>
      </trkpt>
      <trkpt lat="43.3765" lon="5.35973">
        <ele>151</ele>
        <time>2021-12-17T15:39:24+01:00</time>
      </trkpt>
      <trkpt lat="43.37644" lon="5.36013">
        <ele>151</ele>
        <time>2021-12-17T15:39:29+01:00</time>
      </trkpt>
      <trkpt lat="43.37624" lon="5.36151">
        <ele>152</ele>
        <time>2021-12-17T15:39:34+01:00</time>
      </trkpt>
      <trkpt lat="43.37602" lon="5.36227">
        <ele>151</ele>
        <time>2021-12-17T15:39:39+01:00</time>
      </trkpt>
      <trkpt lat="43.37559" lon="5.36281">
        <ele>150</ele>
        <time>2021-12-17T15:39:44+01:00</time>
      </trkpt>
      <trkpt lat="43.37484" lon="5.36378">
        <ele>151</ele>
        <time>2021-12-17T15:39:49+01:00</time>
      </trkpt>
      <trkpt lat="43.37496" lon="5.36391">
        <ele>152</ele>
        <time>2021-12-17T15:39:54+01:00</time>
      </trkpt>
      <trkpt lat="43.37457" lon="5.36458">
        <ele>151</ele>
        <time>2021-12-17T15:39:59+01:00</time>
      </trkpt>
      <trkpt lat="43.37495" lon="5.36562">
        <ele>156</ele>
        <time>2021-12-17T15:40:04+01:00</time>
      </trkpt>
      <trkpt lat="43.37537" lon="5.36744">
        <ele>162</ele>
        <time>2021-12-17T15:40:09+01:00</time>
      </trkpt>
      <trkpt lat="43.37381" lon="5.36866">
        <ele>147</ele>
        <time>2021-12-17T15:40:14+01:00</time>
      </trkpt>
      <trkpt lat="43.37221" lon="5.36759">
        <ele>143</ele>
        <time>2021-12-17T15:40:19+01:00</time>
      </trkpt>
      <trkpt lat="43.37136" lon="5.36905">
        <ele>132</ele>
        <time>2021-12-17T15:40:24+01:00</time>
      </trkpt>
      <trkpt lat="43.37077" lon="5.36873">
        <ele>130</ele>
        <time>2021-12-17T15:40:29+01:00</time>
      </trkpt>
      <trkpt lat="43.37051" lon="5.36892">
        <ele>130</ele>
        <time>2021-12-17T15:40:34+01:00</time>
      </trkpt>
      <trkpt lat="43.37159" lon="5.37037">
        <ele>136</ele>
        <time>2021-12-17T15:40:39+01:00</time>
      </trkpt>
      <trkpt lat="43.37202" lon="5.37147">
        <ele>139</ele>
        <time>2021-12-17T15:40:44+01:00</time>
      </trkpt>
      <trkpt lat="43.37181" lon="5.37287">
        <ele>147</ele>
        <time>2021-12-17T15:40:49+01:00</time>
      </trkpt>
      <trkpt lat="43.37186" lon="5.3734">
        <ele>142</ele>
        <time>2021-12-17T15:40:54+01:00</time>
      </trkpt>
      <trkpt lat="43.3714" lon="5.37483">
        <ele>141</ele>
        <time>2021-12-17T15:40:59+01:00</time>
      </trkpt>
      <trkpt lat="43.37092" lon="5.37584">
        <ele>145</ele>
        <time>2021-12-17T15:41:04+01:00</time>
      </trkpt>
      <trkpt lat="43.37052" lon="5.37673">
        <ele>150</ele>
        <time>2021-12-17T15:41:09+01:00</time>
      </trkpt>
      <trkpt lat="43.3708" lon="5.377">
        <ele>149</ele>
        <time>2021-12-17T15:41:14+01:00</time>
      </trkpt>
      <trkpt lat="43.37158" lon="5.37717">
        <ele>156</ele>
        <time>2021-12-17T15:41:19+01:00</time>
      </trkpt>
      <trkpt lat="43.37223" lon="5.37759">
        <ele>163</ele>
        <time>2021-12-17T15:41:24+01:00</time>
      </trkpt>
      <trkpt lat="43.3726" lon="5.37837">
        <ele>174</ele>
        <time>2021-12-17T15:41:29+01:00</time>
      </trkpt>
      <trkpt lat="43.37265" lon="5.37891">
        <ele>182</ele>
        <time>2021-12-17T15:41:34+01:00</time>
      </trkpt>
      <trkpt lat="43.37305" lon="5.37999">
        <ele>194</ele>
        <time>2021-12-17T15:41:39+01:00</time>
      </trkpt>
      <trkpt lat="43.37312" lon="5.38043">
        <ele>196</ele>
        <time>2021-12-17T15:41:44+01:00</time>
      </trkpt>
      <trkpt lat="43.37351" lon="5.38151">
        <ele>203</ele>
        <time>2021-12-17T15:41:49+01:00</time>
      </trkpt>
      <trkpt lat="43.37373" lon="5.38293">
        <ele>211</ele>
        <time>2021-12-17T15:41:54+01:00</time>
      </trkpt>
      <trkpt lat="43.37362" lon="5.3837">
        <ele>218</ele>
        <time>2021-12-17T15:41:59+01:00</time>
      </trkpt>
      <trkpt lat="43.3734" lon="5.38464">
        <ele>228</ele>
        <time>2021-12-17T15:42:04+01:00</time>
      </trkpt>
      <trkpt lat="43.37373" lon="5.38559">
        <ele>237</ele>
        <time>2021-12-17T15:42:09+01:00</time>
      </trkpt>
      <trkpt lat="43.37452" lon="5.38634">
        <ele>247</ele>
        <time>2021-12-17T15:42:14+01:00</time>
      </trkpt>
      <trkpt lat="43.3749" lon="5.38707">
        <ele>256</ele>
        <time>2021-12-17T15:42:19+01:00</time>
      </trkpt>
      <trkpt lat="43.37477" lon="5.38724">
        <ele>259</ele>
        <time>2021-12-17T15:42:24+01:00</time>
      </trkpt>
      <trkpt lat="43.3745" lon="5.38747">
        <ele>260</ele>
        <time>2021-12-17T15:42:29+01:00</time>
      </trkpt>
      <trkpt lat="43.37486" lon="5.38826">
        <ele>264</ele>
        <time>2021-12-17T15:42:34+01:00</time>
      </trkpt>
      <trkpt lat="43.37503" lon="5.38931">
        <ele>275</ele>
        <time>2021-12-17T15:42:39+01:00</time>
      </trkpt>
      <trkpt lat="43.37473" lon="5.3899">
        <ele>278</ele>
        <time>2021-12-17T15:42:44+01:00</time>
      </trkpt>
      <trkpt lat="43.37455" lon="5.39037">
        <ele>280</ele>
        <time>2021-12-17T15:42:49+01:00</time>
      </trkpt>
      <trkpt lat="43.37469" lon="5.39144">
        <ele>277</ele>
        <time>2021-12-17T15:42:54+01:00</time>
      </trkpt>
      <trkpt lat="43.37472" lon="5.39241">
        <ele>274</ele>
        <time>2021-12-17T15:42:59+01:00</time>
      </trkpt>
      <trkpt lat="43.37404" lon="5.39223">
        <ele>249</ele>
        <time>2021-12-17T15:43:04+01:00</time>
      </trkpt>
      <trkpt lat="43.3742" lon="5.39321">
        <ele>239</ele>
        <time>2021-12-17T15:43:09+01:00</time>
      </trkpt>
      <trkpt lat="43.3741" lon="5.39352">
        <ele>233</ele>
        <time>2021-12-17T15:43:14+01:00</time>
      </trkpt>
      <trkpt lat="43.37391" lon="5.39321">
        <ele>230</ele>
        <time>2021-12-17T15:43:19+01:00</time>
      </trkpt>
      <trkpt lat="43.37365" lon="5.39322">
        <ele>227</ele>
        <time>2021-12-17T15:43:24+01:00</time>
      </trkpt>
      <trkpt lat="43.37332" lon="5.39274">
        <ele>221</ele>
        <time>2021-12-17T15:43:29+01:00</time>
      </trkpt>
      <trkpt lat="43.37333" lon="5.39249">
        <ele>221</ele>
        <time>2021-12-17T15:43:34+01:00</time>
      </trkpt>
      <trkpt lat="43.37215" lon="5.39158">
        <ele>216</ele>
        <time>2021-12-17T15:43:39+01:00</time>
      </trkpt>
      <trkpt lat="43.37227" lon="5.39224">
        <ele>220</ele>
        <time>2021-12-17T15:43:44+01:00</time>
      </trkpt>
      <trkpt lat="43.37235" lon="5.39284">
        <ele>227</ele>
        <time>2021-12-17T15:43:49+01:00</time>
      </trkpt>
      <trkpt lat="43.37222" lon="5.39316">
        <ele>226</ele>
        <time>2021-12-17T15:43:54+01:00</time>
      </trkpt>
      <trkpt lat="43.37229" lon="5.39402">
        <ele>232</ele>
        <time>2021-12-17T15:43:59+01:00</time>
      </trkpt>
      <trkpt lat="43.37215" lon="5.39463">
        <ele>234</ele>
        <time>2021-12-17T15:44:04+01:00</time>
      </trkpt>
      <trkpt lat="43.37187" lon="5.39477">
        <ele>235</ele>
        <time>2021-12-17T15:44:09+01:00</time>
      </trkpt>
      <trkpt lat="43.37169" lon="5.39518">
        <ele>239</ele>
        <time>2021-12-17T15:44:14+01:00</time>
      </trkpt>
      <trkpt lat="43.37143" lon="5.39532">
        <ele>239</ele>
        <time>2021-12-17T15:44:19+01:00</time>
      </trkpt>
      <trkpt lat="43.37125" lon="5.39573">
        <ele>243</ele>
        <time>2021-12-17T15:44:24+01:00</time>
      </trkpt>
      <trkpt lat="43.3706" lon="5.3962">
        <ele>248</ele>
        <time>2021-12-17T15:44:29+01:00</time>
      </trkpt>
      <trkpt lat="43.37024" lon="5.39638">
        <ele>250</ele>
        <time>2021-12-17T15:44:34+01:00</time>
      </trkpt>
      <trkpt lat="43.36998" lon="5.39635">
        <ele>257</ele>
        <time>2021-12-17T15:44:39+01:00</time>
      </trkpt>
      <trkpt lat="43.36933" lon="5.39704">
        <ele>268</ele>
        <time>2021-12-17T15:44:44+01:00</time>
      </trkpt>
      <trkpt lat="43.36917" lon="5.39796">
        <ele>269</ele>
        <time>2021-12-17T15:44:49+01:00</time>
      </trkpt>
      <trkpt lat="43.36822" lon="5.39841">
        <ele>278</ele>
        <time>2021-12-17T15:44:54+01:00</time>
      </trkpt>
      <trkpt lat="43.36784" lon="5.39729">
        <ele>272</ele>
        <time>2021-12-17T15:44:59+01:00</time>
      </trkpt>
      <trkpt lat="43.36781" lon="5.39635">
        <ele>280</ele>
        <time>2021-12-17T15:45:04+01:00</time>
      </trkpt>
      <trkpt lat="43.36738" lon="5.39575">
        <ele>283</ele>
        <time>2021-12-17T15:45:09+01:00</time>
      </trkpt>
      <trkpt lat="43.36678" lon="5.3953">
        <ele>288</ele>
        <time>2021-12-17T15:45:14+01:00</time>
      </trkpt>
      <trkpt lat="43.36539" lon="5.39494">
        <ele>286</ele>
        <time>2021-12-17T15:45:19+01:00</time>
      </trkpt>
      <trkpt lat="43.36499" lon="5.39458">
        <ele>285</ele>
        <time>2021-12-17T15:45:24+01:00</time>
      </trkpt>
      <trkpt lat="43.36481" lon="5.39478">
        <ele>285</ele>
        <time>2021-12-17T15:45:29+01:00</time>
      </trkpt>
      <trkpt lat="43.36475" lon="5.39539">
        <ele>283</ele>
        <time>2021-12-17T15:45:34+01:00</time>
      </trkpt>
      <trkpt lat="43.36425" lon="5.39558">
        <ele>280</ele>
        <time>2021-12-17T15:45:39+01:00</time>
      </trkpt>
      <trkpt lat="43.36315" lon="5.39652">
        <ele>278</ele>
        <time>2021-12-17T15:45:44+01:00</time>
      </trkpt>
      <trkpt lat="43.36255" lon="5.39682">
        <ele>273</ele>
        <time>2021-12-17T15:45:49+01:00</time>
      </trkpt>
      <trkpt lat="43.3616" lon="5.39789">
        <ele>260</ele>
        <time>2021-12-17T15:45:54+01:00</time>
      </trkpt>
      <trkpt lat="43.36068" lon="5.39888">
        <ele>260</ele>
        <time>2021-12-17T15:45:59+01:00</time>
      </trkpt>
      <trkpt lat="43.36005" lon="5.399">
        <ele>259</ele>
        <time>2021-12-17T15:46:04+01:00</time>
      </trkpt>
      <trkpt lat="43.35888" lon="5.39955">
        <ele>260</ele>
        <time>2021-12-17T15:46:09+01:00</time>
      </trkpt>
      <trkpt lat="43.35781" lon="5.39983">
        <ele>257</ele>
        <time>2021-12-17T15:46:14+01:00</time>
      </trkpt>
      <trkpt lat="43.35667" lon="5.39986">
        <ele>246</ele>
        <time>2021-12-17T15:46:19+01:00</time>
      </trkpt>
      <trkpt lat="43.35613" lon="5.40024">
        <ele>231</ele>
        <time>2021-12-17T15:46:24+01:00</time>
      </trkpt>
      <trkpt lat="43.35524" lon="5.40063">
        <ele>217</ele>
        <time>2021-12-17T15:46:29+01:00</time>
      </trkpt>
      <trkpt lat="43.35489" lon="5.40122">
        <ele>210</ele>
        <time>2021-12-17T15:46:34+01:00</time>
      </trkpt>
      <trkpt lat="43.35421" lon="5.40171">
        <ele>201</ele>
        <time>2021-12-17T15:46:39+01:00</time>
      </trkpt>
      <trkpt lat="43.35348" lon="5.40201">
        <ele>195</ele>
        <time>2021-12-17T15:46:44+01:00</time>
      </trkpt>
      <trkpt lat="43.35261" lon="5.40261">
        <ele>183</ele>
        <time>2021-12-17T15:46:49+01:00</time>
      </trkpt>
      <trkpt lat="43.35219" lon="5.4021">
        <ele>177</ele>
        <time>2021-12-17T15:46:54+01:00</time>
      </trkpt>
      <trkpt lat="43.35235" lon="5.40161">
        <ele>173</ele>
        <time>2021-12-17T15:46:59+01:00</time>
      </trkpt>
      <trkpt lat="43.35205" lon="5.40118">
        <ele>168</ele>
        <time>2021-12-17T15:47:04+01:00</time>
      </trkpt>
      <trkpt lat="43.35143" lon="5.40058">
        <ele>159</ele>
        <time>2021-12-17T15:47:09+01:00</time>
      </trkpt>
      <trkpt lat="43.35159" lon="5.39968">
        <ele>155</ele>
        <time>2021-12-17T15:47:14+01:00</time>
      </trkpt>
      <trkpt lat="43.35067" lon="5.39925">
        <ele>149</ele>
        <time>2021-12-17T15:47:19+01:00</time>
      </trkpt>
      <trkpt lat="43.34973" lon="5.39958">
        <ele>142</ele>
        <time>2021-12-17T15:47:24+01:00</time>
      </trkpt>
      <trkpt lat="43.34921" lon="5.39913">
        <ele>140</ele>
        <time>2021-12-17T15:47:29+01:00</time>
      </trkpt>
      <trkpt lat="43.34863" lon="5.39799">
        <ele>138</ele>
        <time>2021-12-17T15:47:34+01:00</time>
      </trkpt>
      <trkpt lat="43.34802" lon="5.39741">
        <ele>139</ele>
        <time>2021-12-17T15:47:39+01:00</time>
      </trkpt>
      <trkpt lat="43.3469" lon="5.39748">
        <ele>135</ele>
        <time>2021-12-17T15:47:44+01:00</time>
      </trkpt>
      <trkpt lat="43.34625" lon="5.39731">
        <ele>133</ele>
        <time>2021-12-17T15:47:49+01:00</time>
      </trkpt>
      <trkpt lat="43.34578" lon="5.39759">
        <ele>131</ele>
        <time>2021-12-17T15:47:54+01:00</time>
      </trkpt>
      <trkpt lat="43.34556" lon="5.39793">
        <ele>129</ele>
        <time>2021-12-17T15:47:59+01:00</time>
      </trkpt>
      <trkpt lat="43.34457" lon="5.39819">
        <ele>124</ele>
        <time>2021-12-17T15:48:04+01:00</time>
      </trkpt>
      <trkpt lat="43.3424" lon="5.39722">
        <ele>118</ele>
        <time>2021-12-17T15:48:09+01:00</time>
      </trkpt>
      <trkpt lat="43.34028" lon="5.396">
        <ele>110</ele>
        <time>2021-12-17T15:48:14+01:00</time>
      </trkpt>
      <trkpt lat="43.33938" lon="5.39555">
        <ele>107</ele>
        <time>2021-12-17T15:48:19+01:00</time>
      </trkpt>
      <trkpt lat="43.33874" lon="5.39572">
        <ele>107</ele>
        <time>2021-12-17T15:48:24+01:00</time>
      </trkpt>
      <trkpt lat="43.33851" lon="5.3969">
        <ele>103</ele>
        <time>2021-12-17T15:48:29+01:00</time>
      </trkpt>
      <trkpt lat="43.33678" lon="5.39729">
        <ele>93</ele>
        <time>2021-12-17T15:48:34+01:00</time>
      </trkpt>
      <trkpt lat="43.33661" lon="5.39707">
        <ele>93</ele>
        <time>2021-12-17T15:48:39+01:00</time>
      </trkpt>
      <trkpt lat="43.33619" lon="5.39729">
        <ele>90</ele>
        <time>2021-12-17T15:48:44+01:00</time>
      </trkpt>
      <trkpt lat="43.336" lon="5.39671">
        <ele>89</ele>
        <time>2021-12-17T15:48:49+01:00</time>
      </trkpt>
      <trkpt lat="43.33387" lon="5.39634">
        <ele>81</ele>
        <time>2021-12-17T15:48:54+01:00</time>
      </trkpt>
      <trkpt lat="43.33366" lon="5.39592">
        <ele>79</ele>
        <time>2021-12-17T15:48:59+01:00</time>
      </trkpt>
      <trkpt lat="43.33365" lon="5.39495">
        <ele>76</ele>
        <time>2021-12-17T15:49:04+01:00</time>
      </trkpt>
      <trkpt lat="43.33253" lon="5.39414">
        <ele>71</ele>
        <time>2021-12-17T15:49:09+01:00</time>
      </trkpt>
      <trkpt lat="43.33173" lon="5.39377">
        <ele>70</ele>
        <time>2021-12-17T15:49:14+01:00</time>
      </trkpt>
      <trkpt lat="43.33125" lon="5.39371">
        <ele>67</ele>
        <time>2021-12-17T15:49:19+01:00</time>
      </trkpt>
      <trkpt lat="43.33121" lon="5.39335">
        <ele>65</ele>
        <time>2021-12-17T15:49:24+01:00</time>
      </trkpt>
      <trkpt lat="43.33057" lon="5.39295">
        <ele>62</ele>
        <time>2021-12-17T15:49:29+01:00</time>
      </trkpt>
      <trkpt lat="43.33021" lon="5.39285">
        <ele>61</ele>
        <time>2021-12-17T15:49:34+01:00</time>
      </trkpt>
      <trkpt lat="43.32992" lon="5.39297">
        <ele>61</ele>
        <time>2021-12-17T15:49:39+01:00</time>
      </trkpt>
      <trkpt lat="43.32974" lon="5.39272">
        <ele>61</ele>
        <time>2021-12-17T15:49:44+01:00</time>
      </trkpt>
      <trkpt lat="43.32968" lon="5.39254">
        <ele>60</ele>
        <time>2021-12-17T15:49:49+01:00</time>
      </trkpt>
      <trkpt lat="43.32892" lon="5.39266">
        <ele>66</ele>
        <time>2021-12-17T15:49:54+01:00</time>
      </trkpt>
      <trkpt lat="43.32831" lon="5.3928">
        <ele>68</ele>
        <time>2021-12-17T15:49:59+01:00</time>
      </trkpt>
      <trkpt lat="43.3282" lon="5.39239">
        <ele>63</ele>
        <time>2021-12-17T15:50:04+01:00</time>
      </trkpt>
      <trkpt lat="43.32726" lon="5.3927">
        <ele>59</ele>
        <time>2021-12-17T15:50:09+01:00</time>
      </trkpt>
      <trkpt lat="43.32698" lon="5.39238">
        <ele>55</ele>
        <time>2021-12-17T15:50:14+01:00</time>
      </trkpt>
      <trkpt lat="43.32671" lon="5.3926">
        <ele>56</ele>
        <time>2021-12-17T15:50:19+01:00</time>
      </trkpt>
      <trkpt lat="43.32575" lon="5.39257">
        <ele>51</ele>
        <time>2021-12-17T15:50:24+01:00</time>
      </trkpt>
      <trkpt lat="43.32529" lon="5.3941">
        <ele>55</ele>
        <time>2021-12-17T15:50:29+01:00</time>
      </trkpt>
      <trkpt lat="43.3237" lon="5.39314">
        <ele>50</ele>
        <time>2021-12-17T15:50:34+01:00</time>
      </trkpt>
      <trkpt lat="43.32339" lon="5.39439">
        <ele>55</ele>
        <time>2021-12-17T15:50:39+01:00</time>
      </trkpt>
      <trkpt lat="43.32302" lon="5.39576">
        <ele>61</ele>
        <time>2021-12-17T15:50:44+01:00</time>
      </trkpt>
      <trkpt lat="43.32282" lon="5.39623">
        <ele>64</ele>
        <time>2021-12-17T15:50:49+01:00</time>
      </trkpt>
      <trkpt lat="43.3223" lon="5.39808">
        <ele>89</ele>
        <time>2021-12-17T15:50:54+01:00</time>
      </trkpt>
      <trkpt lat="43.32304" lon="5.39847">
        <ele>91</ele>
        <time>2021-12-17T15:50:59+01:00</time>
      </trkpt>
      <trkpt lat="43.32259" lon="5.40093">
        <ele>106</ele>
        <time>2021-12-17T15:51:04+01:00</time>
      </trkpt>
      <trkpt lat="43.32116" lon="5.40035">
        <ele>102</ele>
        <time>2021-12-17T15:51:09+01:00</time>
      </trkpt>
      <trkpt lat="43.32054" lon="5.4026">
        <ele>96</ele>
        <time>2021-12-17T15:51:14+01:00</time>
      </trkpt>
      <trkpt lat="43.31949" lon="5.40182">
        <ele>88</ele>
        <time>2021-12-17T15:51:19+01:00</time>
      </trkpt>
      <trkpt lat="43.31898" lon="5.40217">
        <ele>83</ele>
        <time>2021-12-17T15:51:24+01:00</time>
      </trkpt>
      <trkpt lat="43.31868" lon="5.40264">
        <ele>78</ele>
        <time>2021-12-17T15:51:29+01:00</time>
      </trkpt>
      <trkpt lat="43.31975" lon="5.4039">
        <ele>80</ele>
        <time>2021-12-17T15:51:34+01:00</time>
      </trkpt>
      <trkpt lat="43.31987" lon="5.4044">
        <ele>81</ele>
        <time>2021-12-17T15:51:39+01:00</time>
      </trkpt>
      <trkpt lat="43.31936" lon="5.40536">
        <ele>73</ele>
        <time>2021-12-17T15:51:44+01:00</time>
      </trkpt>
      <trkpt lat="43.32012" lon="5.40638">
        <ele>78</ele>
        <time>2021-12-17T15:51:49+01:00</time>
      </trkpt>
      <trkpt lat="43.31974" lon="5.40711">
        <ele>70</ele>
        <time>2021-12-17T15:51:54+01:00</time>
      </trkpt>
      <trkpt lat="43.31996" lon="5.40767">
        <ele>68</ele>
        <time>2021-12-17T15:51:59+01:00</time>
      </trkpt>
      <trkpt lat="43.3191" lon="5.40819">
        <ele>64</ele>
        <time>2021-12-17T15:52:04+01:00</time>
      </trkpt>
      <trkpt lat="43.31854" lon="5.40918">
        <ele>60</ele>
        <time>2021-12-17T15:52:09+01:00</time>
      </trkpt>
      <trkpt lat="43.31891" lon="5.40938">
        <ele>60</ele>
        <time>2021-12-17T15:52:14+01:00</time>
      </trkpt>
      <trkpt lat="43.31894" lon="5.41007">
        <ele>60</ele>
        <time>2021-12-17T15:52:19+01:00</time>
      </trkpt>
      <trkpt lat="43.31852" lon="5.41077">
        <ele>64</ele>
        <time>2021-12-17T15:52:24+01:00</time>
      </trkpt>
      <trkpt lat="43.31818" lon="5.41134">
        <ele>67</ele>
        <time>2021-12-17T15:52:29+01:00</time>
      </trkpt>
      <trkpt lat="43.31777" lon="5.41161">
        <ele>70</ele>
        <time>2021-12-17T15:52:34+01:00</time>
      </trkpt>
      <trkpt lat="43.31747" lon="5.41292">
        <ele>77</ele>
        <time>2021-12-17T15:52:39+01:00</time>
      </trkpt>
      <trkpt lat="43.31745" lon="5.41391">
        <ele>84</ele>
        <time>2021-12-17T15:52:44+01:00</time>
      </trkpt>
      <trkpt lat="43.31724" lon="5.41469">
        <ele>90</ele>
        <time>2021-12-17T15:52:49+01:00</time>
      </trkpt>
      <trkpt lat="43.31679" lon="5.41553">
        <ele>102</ele>
        <time>2021-12-17T15:52:54+01:00</time>
      </trkpt>
      <trkpt lat="43.31679" lon="5.41615">
        <ele>105</ele>
        <time>2021-12-17T15:52:59+01:00</time>
      </trkpt>
      <trkpt lat="43.31605" lon="5.41873">
        <ele>109</ele>
        <time>2021-12-17T15:53:04+01:00</time>
      </trkpt>
      <trkpt lat="43.31581" lon="5.41997">
        <ele>113</ele>
        <time>2021-12-17T15:53:09+01:00</time>
      </trkpt>
      <trkpt lat="43.31577" lon="5.42129">
        <ele>117</ele>
        <time>2021-12-17T15:53:14+01:00</time>
      </trkpt>
      <trkpt lat="43.31574" lon="5.42258">
        <ele>122</ele>
        <time>2021-12-17T15:53:19+01:00</time>
      </trkpt>
      <trkpt lat="43.31542" lon="5.42257">
        <ele>121</ele>
        <time>2021-12-17T15:53:24+01:00</time>
      </trkpt>
      <trkpt lat="43.31545" lon="5.4236">
        <ele>127</ele>
        <time>2021-12-17T15:53:29+01:00</time>
      </trkpt>
      <trkpt lat="43.31388" lon="5.42363">
        <ele>125</ele>
        <time>2021-12-17T15:53:34+01:00</time>
      </trkpt>
      <trkpt lat="43.31343" lon="5.42322">
        <ele>121</ele>
        <time>2021-12-17T15:53:39+01:00</time>
      </trkpt>
      <trkpt lat="43.31309" lon="5.42357">
        <ele>123</ele>
        <time>2021-12-17T15:53:44+01:00</time>
      </trkpt>
      <trkpt lat="43.31351" lon="5.42439">
        <ele>127</ele>
        <time>2021-12-17T15:53:49+01:00</time>
      </trkpt>
      <trkpt lat="43.31345" lon="5.42486">
        <ele>130</ele>
        <time>2021-12-17T15:53:54+01:00</time>
      </trkpt>
      <trkpt lat="43.31279" lon="5.42562">
        <ele>134</ele>
        <time>2021-12-17T15:53:59+01:00</time>
      </trkpt>
      <trkpt lat="43.31227" lon="5.42611">
        <ele>135</ele>
        <time>2021-12-17T15:54:04+01:00</time>
      </trkpt>
      <trkpt lat="43.31208" lon="5.4268">
        <ele>138</ele>
        <time>2021-12-17T15:54:09+01:00</time>
      </trkpt>
      <trkpt lat="43.31223" lon="5.42805">
        <ele>144</ele>
        <time>2021-12-17T15:54:14+01:00</time>
      </trkpt>
      <trkpt lat="43.3122" lon="5.42916">
        <ele>145</ele>
        <time>2021-12-17T15:54:19+01:00</time>
      </trkpt>
      <trkpt lat="43.31193" lon="5.42962">
        <ele>145</ele>
        <time>2021-12-17T15:54:24+01:00</time>
      </trkpt>
      <trkpt lat="43.31259" lon="5.43062">
        <ele>145</ele>
        <time>2021-12-17T15:54:29+01:00</time>
      </trkpt>
      <trkpt lat="43.31222" lon="5.43187">
        <ele>145</ele>
        <time>2021-12-17T15:54:34+01:00</time>
      </trkpt>
      <trkpt lat="43.31184" lon="5.43274">
        <ele>145</ele>
        <time>2021-12-17T15:54:39+01:00</time>
      </trkpt>
      <trkpt lat="43.31205" lon="5.43331">
        <ele>146</ele>
        <time>2021-12-17T15:54:44+01:00</time>
      </trkpt>
      <trkpt lat="43.31116" lon="5.43484">
        <ele>147</ele>
        <time>2021-12-17T15:54:49+01:00</time>
      </trkpt>
      <trkpt lat="43.31142" lon="5.43653">
        <ele>149</ele>
        <time>2021-12-17T15:54:54+01:00</time>
      </trkpt>
      <trkpt lat="43.31096" lon="5.43858">
        <ele>150</ele>
        <time>2021-12-17T15:54:59+01:00</time>
      </trkpt>
      <trkpt lat="43.31088" lon="5.44043">
        <ele>150</ele>
        <time>2021-12-17T15:55:04+01:00</time>
      </trkpt>
      <trkpt lat="43.31244" lon="5.44053">
        <ele>150</ele>
        <time>2021-12-17T15:55:09+01:00</time>
      </trkpt>
      <trkpt lat="43.31239" lon="5.44192">
        <ele>152</ele>
        <time>2021-12-17T15:55:14+01:00</time>
      </trkpt>
      <trkpt lat="43.31228" lon="5.4432">
        <ele>155</ele>
        <time>2021-12-17T15:55:19+01:00</time>
      </trkpt>
      <trkpt lat="43.31247" lon="5.44387">
        <ele>155</ele>
        <time>2021-12-17T15:55:24+01:00</time>
      </trkpt>
      <trkpt lat="43.31297" lon="5.44479">
        <ele>155</ele>
        <time>2021-12-17T15:55:29+01:00</time>
      </trkpt>
      <trkpt lat="43.31216" lon="5.44594">
        <ele>159</ele>
        <time>2021-12-17T15:55:34+01:00</time>
      </trkpt>
      <trkpt lat="43.31173" lon="5.44604">
        <ele>160</ele>
        <time>2021-12-17T15:55:39+01:00</time>
      </trkpt>
      <trkpt lat="43.31138" lon="5.4462">
        <ele>159</ele>
        <time>2021-12-17T15:55:44+01:00</time>
      </trkpt>
      <trkpt lat="43.31153" lon="5.44657">
        <ele>160</ele>
        <time>2021-12-17T15:55:49+01:00</time>
      </trkpt>
      <trkpt lat="43.31096" lon="5.44692">
        <ele>149</ele>
        <time>2021-12-17T15:55:54+01:00</time>
      </trkpt>
      <trkpt lat="43.31064" lon="5.44708">
        <ele>139</ele>
        <time>2021-12-17T15:55:59+01:00</time>
      </trkpt>
      <trkpt lat="43.31073" lon="5.44947">
        <ele>139</ele>
        <time>2021-12-17T15:56:04+01:00</time>
      </trkpt>
      <trkpt lat="43.31071" lon="5.44995">
        <ele>138</ele>
        <time>2021-12-17T15:56:09+01:00</time>
      </trkpt>
      <trkpt lat="43.31089" lon="5.45092">
        <ele>138</ele>
        <time>2021-12-17T15:56:14+01:00</time>
      </trkpt>
      <trkpt lat="43.31077" lon="5.45144">
        <ele>139</ele>
        <time>2021-12-17T15:56:19+01:00</time>
      </trkpt>
      <trkpt lat="43.31047" lon="5.45157">
        <ele>138</ele>
        <time>2021-12-17T15:56:24+01:00</time>
      </trkpt>
      <trkpt lat="43.30969" lon="5.45136">
        <ele>136</ele>
        <time>2021-12-17T15:56:29+01:00</time>
      </trkpt>
      <trkpt lat="43.30946" lon="5.45159">
        <ele>136</ele>
        <time>2021-12-17T15:56:34+01:00</time>
      </trkpt>
      <trkpt lat="43.30928" lon="5.45217">
        <ele>136</ele>
        <time>2021-12-17T15:56:39+01:00</time>
      </trkpt>
      <trkpt lat="43.30885" lon="5.45279">
        <ele>135</ele>
        <time>2021-12-17T15:56:44+01:00</time>
      </trkpt>
      <trkpt lat="43.30831" lon="5.45353">
        <ele>136</ele>
        <time>2021-12-17T15:56:49+01:00</time>
      </trkpt>
      <trkpt lat="43.30784" lon="5.45553">
        <ele>137</ele>
        <time>2021-12-17T15:56:54+01:00</time>
      </trkpt>
      <trkpt lat="43.30701" lon="5.45652">
        <ele>136</ele>
        <time>2021-12-17T15:56:59+01:00</time>
      </trkpt>
      <trkpt lat="43.30677" lon="5.45678">
        <ele>133</ele>
        <time>2021-12-17T15:57:04+01:00</time>
      </trkpt>
      <trkpt lat="43.30688" lon="5.45717">
        <ele>138</ele>
        <time>2021-12-17T15:57:09+01:00</time>
      </trkpt>
      <trkpt lat="43.30598" lon="5.45863">
        <ele>137</ele>
        <time>2021-12-17T15:57:14+01:00</time>
      </trkpt>
      <trkpt lat="43.30645" lon="5.45928">
        <ele>137</ele>
        <time>2021-12-17T15:57:19+01:00</time>
      </trkpt>
      <trkpt lat="43.30651" lon="5.45984">
        <ele>134</ele>
        <time>2021-12-17T15:57:24+01:00</time>
      </trkpt>
      <trkpt lat="43.30713" lon="5.4603">
        <ele>138</ele>
        <time>2021-12-17T15:57:29+01:00</time>
      </trkpt>
      <trkpt lat="43.30717" lon="5.46065">
        <ele>138</ele>
        <time>2021-12-17T15:57:34+01:00</time>
      </trkpt>
      <trkpt lat="43.30696" lon="5.46105">
        <ele>134</ele>
        <time>2021-12-17T15:57:39+01:00</time>
      </trkpt>
      <trkpt lat="43.30814" lon="5.46146">
        <ele>154</ele>
        <time>2021-12-17T15:57:44+01:00</time>
      </trkpt>
      <trkpt lat="43.3089" lon="5.46271">
        <ele>162</ele>
        <time>2021-12-17T15:57:49+01:00</time>
      </trkpt>
      <trkpt lat="43.30835" lon="5.46361">
        <ele>160</ele>
        <time>2021-12-17T15:57:54+01:00</time>
      </trkpt>
      <trkpt lat="43.30785" lon="5.46427">
        <ele>160</ele>
        <time>2021-12-17T15:57:59+01:00</time>
      </trkpt>
      <trkpt lat="43.30734" lon="5.46471">
        <ele>160</ele>
        <time>2021-12-17T15:58:04+01:00</time>
      </trkpt>
      <trkpt lat="43.30705" lon="5.46551">
        <ele>160</ele>
        <time>2021-12-17T15:58:09+01:00</time>
      </trkpt>
      <trkpt lat="43.30516" lon="5.46677">
        <ele>150</ele>
        <time>2021-12-17T15:58:14+01:00</time>
      </trkpt>
      <trkpt lat="43.30479" lon="5.46687">
        <ele>150</ele>
        <time>2021-12-17T15:58:19+01:00</time>
      </trkpt>
      <trkpt lat="43.30415" lon="5.46753">
        <ele>150</ele>
        <time>2021-12-17T15:58:24+01:00</time>
      </trkpt>
      <trkpt lat="43.303" lon="5.46828">
        <ele>147</ele>
        <time>2021-12-17T15:58:29+01:00</time>
      </trkpt>
      <trkpt lat="43.30307" lon="5.46877">
        <ele>147</ele>
        <time>2021-12-17T15:58:34+01:00</time>
      </trkpt>
      <trkpt lat="43.30286" lon="5.46899">
        <ele>147</ele>
        <time>2021-12-17T15:58:39+01:00</time>
      </trkpt>
      <trkpt lat="43.30237" lon="5.46954">
        <ele>150</ele>
        <time>2021-12-17T15:58:44+01:00</time>
      </trkpt>
      <trkpt lat="43.3023" lon="5.47072">
        <ele>151</ele>
        <time>2021-12-17T15:58:49+01:00</time>
      </trkpt>
      <trkpt lat="43.30235" lon="5.4722">
        <ele>154</ele>
        <time>2021-12-17T15:58:54+01:00</time>
      </trkpt>
      <trkpt lat="43.30187" lon="5.47225">
        <ele>154</ele>
        <time>2021-12-17T15:58:59+01:00</time>
      </trkpt>
      <trkpt lat="43.30171" lon="5.47198">
        <ele>155</ele>
        <time>2021-12-17T15:59:04+01:00</time>
      </trkpt>
      <trkpt lat="43.3" lon="5.47208">
        <ele>139</ele>
        <time>2021-12-17T15:59:09+01:00</time>
      </trkpt>
      <trkpt lat="43.29963" lon="5.47341">
        <ele>132</ele>
        <time>2021-12-17T15:59:14+01:00</time>
      </trkpt>
      <trkpt lat="43.29999" lon="5.47403">
        <ele>123</ele>
        <time>2021-12-17T15:59:19+01:00</time>
      </trkpt>
      <trkpt lat="43.30001" lon="5.47435">
        <ele>117</ele>
        <time>2021-12-17T15:59:24+01:00</time>
      </trkpt>
      <trkpt lat="43.30009" lon="5.47634">
        <ele>102</ele>
        <time>2021-12-17T15:59:29+01:00</time>
      </trkpt>
      <trkpt lat="43.3004" lon="5.4772">
        <ele>99</ele>
        <time>2021-12-17T15:59:34+01:00</time>
      </trkpt>
      <trkpt lat="43.29967" lon="5.47891">
        <ele>95</ele>
        <time>2021-12-17T15:59:39+01:00</time>
      </trkpt>
      <trkpt lat="43.29912" lon="5.48052">
        <ele>90</ele>
        <time>2021-12-17T15:59:44+01:00</time>
      </trkpt>
      <trkpt lat="43.29875" lon="5.48127">
        <ele>87</ele>
        <time>2021-12-17T15:59:49+01:00</time>
      </trkpt>
      <trkpt lat="43.29698" lon="5.48413">
        <ele>78</ele>
        <time>2021-12-17T15:59:54+01:00</time>
      </trkpt>
      <trkpt lat="43.29484" lon="5.49035">
        <ele>79</ele>
        <time>2021-12-17T15:59:59+01:00</time>
      </trkpt>
      <trkpt lat="43.29319" lon="5.49518">
        <ele>97</ele>
        <time>2021-12-17T16:00:04+01:00</time>
      </trkpt>
      <trkpt lat="43.29189" lon="5.49683">
        <ele>90</ele>
        <time>2021-12-17T16:00:09+01:00</time>
      </trkpt>
      <trkpt lat="43.29162" lon="5.49679">
        <ele>90</ele>
        <time>2021-12-17T16:00:14+01:00</time>
      </trkpt>
      <trkpt lat="43.2913" lon="5.49655">
        <ele>90</ele>
        <time>2021-12-17T16:00:19+01:00</time>
      </trkpt>
      <trkpt lat="43.29075" lon="5.49666">
        <ele>90</ele>
        <time>2021-12-17T16:00:24+01:00</time>
      </trkpt>
      <trkpt lat="43.28997" lon="5.49728">
        <ele>86</ele>
        <time>2021-12-17T16:00:29+01:00</time>
      </trkpt>
      <trkpt lat="43.28931" lon="5.49668">
        <ele>81</ele>
        <time>2021-12-17T16:00:34+01:00</time>
      </trkpt>
      <trkpt lat="43.28894" lon="5.49743">
        <ele>78</ele>
        <time>2021-12-17T16:00:39+01:00</time>
      </trkpt>
      <trkpt lat="43.28811" lon="5.50207">
        <ele>77</ele>
        <time>2021-12-17T16:00:44+01:00</time>
      </trkpt>
      <trkpt lat="43.28819" lon="5.50479">
        <ele>78</ele>
        <time>2021-12-17T16:00:49+01:00</time>
      </trkpt>
      <trkpt lat="43.28759" lon="5.50793">
        <ele>76</ele>
        <time>2021-12-17T16:00:54+01:00</time>
      </trkpt>
      <trkpt lat="43.28735" lon="5.50999">
        <ele>77</ele>
        <time>2021-12-17T16:00:59+01:00</time>
      </trkpt>
      <trkpt lat="43.28726" lon="5.51025">
        <ele>76</ele>
        <time>2021-12-17T16:01:04+01:00</time>
      </trkpt>
      <trkpt lat="43.28711" lon="5.51032">
        <ele>76</ele>
        <time>2021-12-17T16:01:09+01:00</time>
      </trkpt>
      <trkpt lat="43.28706" lon="5.51173">
        <ele>78</ele>
        <time>2021-12-17T16:01:14+01:00</time>
      </trkpt>
      <trkpt lat="43.28675" lon="5.51174">
        <ele>75</ele>
        <time>2021-12-17T16:01:19+01:00</time>
      </trkpt>
    </trkseg>
  </trk>
</gpx>